sensor_id;sensor_type;location;lat;lon;timestamp;temperature;humidity
64961;SHT31;51487;52.266;10.542;2023-02-15T00:01:52;2.49;94.62
64961;SHT31;51487;52.266;10.542;2023-02-15T00:04:21;2.48;94.80
64961;SHT31;51487;52.266;10.542;2023-02-15T00:06:48;2.41;94.68
64961;SHT31;51487;52.266;10.542;2023-02-15T00:09:14;2.38;94.99
64961;SHT31;51487;52.266;10.542;2023-02-15T00:11:40;2.20;95.15
64961;SHT31;51487;52.266;10.542;2023-02-15T00:14:19;2.26;94.85
64961;SHT31;51487;52.266;10.542;2023-02-15T00:16:46;2.22;95.10
64961;SHT31;51487;52.266;10.542;2023-02-15T00:19:15;2.07;95.06
64961;SHT31;51487;52.266;10.542;2023-02-15T00:21:41;1.97;95.31
64961;SHT31;51487;52.266;10.542;2023-02-15T00:24:11;2.01;95.27
64961;SHT31;51487;52.266;10.542;2023-02-15T00:26:40;2.01;95.67
64961;SHT31;51487;52.266;10.542;2023-02-15T00:29:07;1.95;95.64
64961;SHT31;51487;52.266;10.542;2023-02-15T00:31:34;2.03;95.53
64961;SHT31;51487;52.266;10.542;2023-02-15T00:36:32;1.88;95.46
64961;SHT31;51487;52.266;10.542;2023-02-15T00:38:58;1.90;95.85
64961;SHT31;51487;52.266;10.542;2023-02-15T00:41:24;1.93;95.51
64961;SHT31;51487;52.266;10.542;2023-02-15T00:43:50;1.77;95.38
64961;SHT31;51487;52.266;10.542;2023-02-15T00:46:15;1.66;95.64
64961;SHT31;51487;52.266;10.542;2023-02-15T00:48:41;1.63;95.72
64961;SHT31;51487;52.266;10.542;2023-02-15T00:51:07;1.66;95.92
64961;SHT31;51487;52.266;10.542;2023-02-15T00:53:32;1.67;95.73
64961;SHT31;51487;52.266;10.542;2023-02-15T00:55:58;1.56;95.82
64961;SHT31;51487;52.266;10.542;2023-02-15T00:58:24;1.50;95.97
64961;SHT31;51487;52.266;10.542;2023-02-15T01:00:53;1.46;96.22
64961;SHT31;51487;52.266;10.542;2023-02-15T01:03:20;1.47;96.15
64961;SHT31;51487;52.266;10.542;2023-02-15T01:05:48;1.50;96.28
64961;SHT31;51487;52.266;10.542;2023-02-15T01:08:15;1.43;96.14
64961;SHT31;51487;52.266;10.542;2023-02-15T01:10:41;1.40;96.35
64961;SHT31;51487;52.266;10.542;2023-02-15T01:13:09;1.40;96.78
64961;SHT31;51487;52.266;10.542;2023-02-15T01:15:35;1.47;96.87
64961;SHT31;51487;52.266;10.542;2023-02-15T01:18:01;1.50;96.63
64961;SHT31;51487;52.266;10.542;2023-02-15T01:20:28;1.50;96.54
64961;SHT31;51487;52.266;10.542;2023-02-15T01:22:56;1.64;96.67
64961;SHT31;51487;52.266;10.542;2023-02-15T01:25:24;1.57;96.98
64961;SHT31;51487;52.266;10.542;2023-02-15T01:27:49;1.52;96.99
64961;SHT31;51487;52.266;10.542;2023-02-15T01:30:15;1.67;97.04
64961;SHT31;51487;52.266;10.542;2023-02-15T01:32:42;1.62;96.85
64961;SHT31;51487;52.266;10.542;2023-02-15T01:35:08;1.60;96.78
64961;SHT31;51487;52.266;10.542;2023-02-15T01:37:35;1.56;96.73
64961;SHT31;51487;52.266;10.542;2023-02-15T01:40:03;1.60;96.58
64961;SHT31;51487;52.266;10.542;2023-02-15T01:42:29;1.59;96.35
64961;SHT31;51487;52.266;10.542;2023-02-15T01:44:59;1.63;96.56
64961;SHT31;51487;52.266;10.542;2023-02-15T01:47:44;1.59;96.54
64961;SHT31;51487;52.266;10.542;2023-02-15T01:50:33;1.60;96.44
64961;SHT31;51487;52.266;10.542;2023-02-15T01:53:13;1.60;96.45
64961;SHT31;51487;52.266;10.542;2023-02-15T01:55:51;1.59;96.91
64961;SHT31;51487;52.266;10.542;2023-02-15T01:58:19;1.59;96.81
64961;SHT31;51487;52.266;10.542;2023-02-15T02:00:45;1.59;96.96
64961;SHT31;51487;52.266;10.542;2023-02-15T02:03:11;1.57;97.25
64961;SHT31;51487;52.266;10.542;2023-02-15T02:05:39;1.47;97.19
64961;SHT31;51487;52.266;10.542;2023-02-15T02:08:06;1.54;97.20
64961;SHT31;51487;52.266;10.542;2023-02-15T02:10:32;1.49;96.78
64961;SHT31;51487;52.266;10.542;2023-02-15T02:13:05;1.45;96.82
64961;SHT31;51487;52.266;10.542;2023-02-15T02:16:57;1.45;97.01
64961;SHT31;51487;52.266;10.542;2023-02-15T02:33:42;1.39;96.65
64961;SHT31;51487;52.266;10.542;2023-02-15T02:39:36;1.38;96.71
64961;SHT31;51487;52.266;10.542;2023-02-15T02:42:21;1.33;96.58
64961;SHT31;51487;52.266;10.542;2023-02-15T02:45:05;1.35;96.63
64961;SHT31;51487;52.266;10.542;2023-02-15T02:47:43;1.26;96.85
64961;SHT31;51487;52.266;10.542;2023-02-15T02:50:16;1.19;96.73
64961;SHT31;51487;52.266;10.542;2023-02-15T02:52:50;1.28;96.86
64961;SHT31;51487;52.266;10.542;2023-02-15T02:55:27;1.21;96.86
64961;SHT31;51487;52.266;10.542;2023-02-15T02:58:09;1.16;96.82
64961;SHT31;51487;52.266;10.542;2023-02-15T03:00:45;1.24;97.02
64961;SHT31;51487;52.266;10.542;2023-02-15T03:06:07;1.11;97.47
64961;SHT31;51487;52.266;10.542;2023-02-15T03:08:42;1.29;97.22
64961;SHT31;51487;52.266;10.542;2023-02-15T03:11:09;1.19;96.87
64961;SHT31;51487;52.266;10.542;2023-02-15T03:13:36;1.09;96.85
64961;SHT31;51487;52.266;10.542;2023-02-15T03:16:06;1.08;97.05
64961;SHT31;51487;52.266;10.542;2023-02-15T03:19:14;1.16;97.37
64961;SHT31;51487;52.266;10.542;2023-02-15T03:21:51;1.04;97.06
64961;SHT31;51487;52.266;10.542;2023-02-15T03:24:36;1.16;96.98
64961;SHT31;51487;52.266;10.542;2023-02-15T03:27:11;1.09;96.94
64961;SHT31;51487;52.266;10.542;2023-02-15T03:29:39;1.12;96.81
64961;SHT31;51487;52.266;10.542;2023-02-15T03:32:09;1.09;96.86
64961;SHT31;51487;52.266;10.542;2023-02-15T03:34:35;0.98;97.04
64961;SHT31;51487;52.266;10.542;2023-02-15T03:39:54;0.88;96.54
64961;SHT31;51487;52.266;10.542;2023-02-15T03:42:29;0.83;96.69
64961;SHT31;51487;52.266;10.542;2023-02-15T03:45:06;0.92;96.84
64961;SHT31;51487;52.266;10.542;2023-02-15T03:47:38;0.88;96.86
64961;SHT31;51487;52.266;10.542;2023-02-15T03:50:14;0.85;97.10
64961;SHT31;51487;52.266;10.542;2023-02-15T03:53:03;0.92;96.77
64961;SHT31;51487;52.266;10.542;2023-02-15T03:55:30;0.84;97.12
64961;SHT31;51487;52.266;10.542;2023-02-15T03:57:56;0.77;96.73
64961;SHT31;51487;52.266;10.542;2023-02-15T04:00:51;0.77;97.00
64961;SHT31;51487;52.266;10.542;2023-02-15T04:04:09;0.91;96.44
64961;SHT31;51487;52.266;10.542;2023-02-15T04:06:35;0.75;96.43
64961;SHT31;51487;52.266;10.542;2023-02-15T04:09:01;0.70;96.75
64961;SHT31;51487;52.266;10.542;2023-02-15T04:11:45;0.75;96.75
64961;SHT31;51487;52.266;10.542;2023-02-15T04:14:10;0.74;96.68
64961;SHT31;51487;52.266;10.542;2023-02-15T04:16:54;0.75;96.73
64961;SHT31;51487;52.266;10.542;2023-02-15T04:19:20;0.67;96.76
64961;SHT31;51487;52.266;10.542;2023-02-15T04:22:04;0.68;96.85
64961;SHT31;51487;52.266;10.542;2023-02-15T04:24:48;0.67;96.32
64961;SHT31;51487;52.266;10.542;2023-02-15T04:27:32;0.74;96.13
64961;SHT31;51487;52.266;10.542;2023-02-15T04:29:57;0.66;95.74
64961;SHT31;51487;52.266;10.542;2023-02-15T04:32:23;0.68;95.50
64961;SHT31;51487;52.266;10.542;2023-02-15T04:34:48;0.74;95.05
64961;SHT31;51487;52.266;10.542;2023-02-15T04:37:14;0.70;94.58
64961;SHT31;51487;52.266;10.542;2023-02-15T04:39:39;0.67;94.07
64961;SHT31;51487;52.266;10.542;2023-02-15T04:42:05;0.58;94.02
64961;SHT31;51487;52.266;10.542;2023-02-15T04:44:30;0.53;94.23
64961;SHT31;51487;52.266;10.542;2023-02-15T04:46:56;0.45;94.40
64961;SHT31;51487;52.266;10.542;2023-02-15T04:49:21;0.33;94.93
64961;SHT31;51487;52.266;10.542;2023-02-15T04:51:47;0.36;94.93
64961;SHT31;51487;52.266;10.542;2023-02-15T04:54:12;0.42;95.10
64961;SHT31;51487;52.266;10.542;2023-02-15T04:56:39;0.35;94.84
64961;SHT31;51487;52.266;10.542;2023-02-15T04:59:05;0.43;94.65
64961;SHT31;51487;52.266;10.542;2023-02-15T05:01:31;0.42;94.56
64961;SHT31;51487;52.266;10.542;2023-02-15T05:03:56;0.32;94.56
64961;SHT31;51487;52.266;10.542;2023-02-15T05:06:22;0.27;94.67
64961;SHT31;51487;52.266;10.542;2023-02-15T05:08:47;0.20;95.05
64961;SHT31;51487;52.266;10.542;2023-02-15T05:11:13;0.26;95.07
64961;SHT31;51487;52.266;10.542;2023-02-15T05:13:38;0.40;94.89
64961;SHT31;51487;52.266;10.542;2023-02-15T05:16:04;0.35;94.82
64961;SHT31;51487;52.266;10.542;2023-02-15T05:18:30;0.29;95.01
64961;SHT31;51487;52.266;10.542;2023-02-15T05:20:55;0.26;95.42
64961;SHT31;51487;52.266;10.542;2023-02-15T05:23:21;0.29;95.35
64961;SHT31;51487;52.266;10.542;2023-02-15T05:25:50;0.36;95.49
64961;SHT31;51487;52.266;10.542;2023-02-15T05:28:36;0.33;95.17
64961;SHT31;51487;52.266;10.542;2023-02-15T05:33:32;0.32;95.56
64961;SHT31;51487;52.266;10.542;2023-02-15T05:35:58;0.32;95.56
64961;SHT31;51487;52.266;10.542;2023-02-15T05:38:23;0.40;95.10
64961;SHT31;51487;52.266;10.542;2023-02-15T05:40:51;0.35;94.92
64961;SHT31;51487;52.266;10.542;2023-02-15T05:43:17;0.36;94.79
64961;SHT31;51487;52.266;10.542;2023-02-15T05:45:51;0.42;94.79
64961;SHT31;51487;52.266;10.542;2023-02-15T05:48:19;0.30;94.55
64961;SHT31;51487;52.266;10.542;2023-02-15T05:50:45;0.23;94.63
64961;SHT31;51487;52.266;10.542;2023-02-15T05:53:11;0.17;94.60
64961;SHT31;51487;52.266;10.542;2023-02-15T05:55:40;0.19;94.52
64961;SHT31;51487;52.266;10.542;2023-02-15T05:58:07;0.15;94.50
64961;SHT31;51487;52.266;10.542;2023-02-15T06:00:33;0.15;94.68
64961;SHT31;51487;52.266;10.542;2023-02-15T06:02:59;0.17;94.55
64961;SHT31;51487;52.266;10.542;2023-02-15T06:05:25;0.17;94.54
64961;SHT31;51487;52.266;10.542;2023-02-15T06:07:50;0.19;94.74
64961;SHT31;51487;52.266;10.542;2023-02-15T06:10:16;0.26;94.81
64961;SHT31;51487;52.266;10.542;2023-02-15T06:12:43;0.33;94.06
64961;SHT31;51487;52.266;10.542;2023-02-15T06:15:09;0.40;93.90
64961;SHT31;51487;52.266;10.542;2023-02-15T06:17:34;0.43;93.12
64961;SHT31;51487;52.266;10.542;2023-02-15T06:20:00;0.30;92.87
64961;SHT31;51487;52.266;10.542;2023-02-15T06:22:25;0.26;93.09
64961;SHT31;51487;52.266;10.542;2023-02-15T06:24:51;0.17;93.35
64961;SHT31;51487;52.266;10.542;2023-02-15T06:27:16;0.12;93.47
64961;SHT31;51487;52.266;10.542;2023-02-15T06:29:42;0.10;93.82
64961;SHT31;51487;52.266;10.542;2023-02-15T06:32:07;0.16;93.76
64961;SHT31;51487;52.266;10.542;2023-02-15T06:34:33;0.05;93.79
64961;SHT31;51487;52.266;10.542;2023-02-15T06:36:59;-0.02;93.82
64961;SHT31;51487;52.266;10.542;2023-02-15T06:39:24;0.19;94.06
64961;SHT31;51487;52.266;10.542;2023-02-15T06:41:50;0.15;93.94
64961;SHT31;51487;52.266;10.542;2023-02-15T06:44:15;0.05;93.82
64961;SHT31;51487;52.266;10.542;2023-02-15T06:46:41;0.03;93.82
64961;SHT31;51487;52.266;10.542;2023-02-15T06:49:07;0.13;93.67
64961;SHT31;51487;52.266;10.542;2023-02-15T06:51:32;0.27;93.45
64961;SHT31;51487;52.266;10.542;2023-02-15T06:53:59;0.35;93.56
64961;SHT31;51487;52.266;10.542;2023-02-15T06:56:25;0.32;93.55
64961;SHT31;51487;52.266;10.542;2023-02-15T06:58:51;0.32;94.17
64961;SHT31;51487;52.266;10.542;2023-02-15T07:01:18;0.42;94.02
64961;SHT31;51487;52.266;10.542;2023-02-15T07:03:43;0.49;93.70
64961;SHT31;51487;52.266;10.542;2023-02-15T07:06:09;0.54;93.94
64961;SHT31;51487;52.266;10.542;2023-02-15T07:08:37;0.54;93.96
64961;SHT31;51487;52.266;10.542;2023-02-15T07:11:03;0.57;94.06
64961;SHT31;51487;52.266;10.542;2023-02-15T07:14:01;0.66;93.67
64961;SHT31;51487;52.266;10.542;2023-02-15T07:16:27;0.70;93.68
64961;SHT31;51487;52.266;10.542;2023-02-15T07:18:53;0.71;93.36
64961;SHT31;51487;52.266;10.542;2023-02-15T07:21:18;0.67;93.48
64961;SHT31;51487;52.266;10.542;2023-02-15T07:23:44;0.74;93.93
64961;SHT31;51487;52.266;10.542;2023-02-15T07:26:09;0.85;93.47
64961;SHT31;51487;52.266;10.542;2023-02-15T07:28:35;0.91;93.42
64961;SHT31;51487;52.266;10.542;2023-02-15T07:31:03;0.92;93.36
64961;SHT31;51487;52.266;10.542;2023-02-15T07:33:31;1.12;92.96
64961;SHT31;51487;52.266;10.542;2023-02-15T07:36:00;1.12;93.02
64961;SHT31;51487;52.266;10.542;2023-02-15T07:38:31;1.08;93.30
64961;SHT31;51487;52.266;10.542;2023-02-15T07:40:59;1.08;93.31
64961;SHT31;51487;52.266;10.542;2023-02-15T07:43:26;1.09;93.73
64961;SHT31;51487;52.266;10.542;2023-02-15T07:45:51;1.05;94.06
64961;SHT31;51487;52.266;10.542;2023-02-15T07:48:17;1.11;93.82
64961;SHT31;51487;52.266;10.542;2023-02-15T07:50:43;1.29;93.11
64961;SHT31;51487;52.266;10.542;2023-02-15T07:53:09;1.38;92.46
64961;SHT31;51487;52.266;10.542;2023-02-15T07:55:35;1.40;92.34
64961;SHT31;51487;52.266;10.542;2023-02-15T07:58:00;1.38;92.61
64961;SHT31;51487;52.266;10.542;2023-02-15T08:00:26;1.33;92.82
64961;SHT31;51487;52.266;10.542;2023-02-15T08:02:56;1.45;93.05
64961;SHT31;51487;52.266;10.542;2023-02-15T08:05:42;1.52;93.21
64961;SHT31;51487;52.266;10.542;2023-02-15T08:08:09;1.49;93.18
64961;SHT31;51487;52.266;10.542;2023-02-15T08:13:55;1.68;93.47
64961;SHT31;51487;52.266;10.542;2023-02-15T08:19:23;1.80;93.24
64961;SHT31;51487;52.266;10.542;2023-02-15T08:22:05;1.87;93.28
64961;SHT31;51487;52.266;10.542;2023-02-15T08:24:34;1.94;93.18
64961;SHT31;51487;52.266;10.542;2023-02-15T08:27:02;1.98;92.90
64961;SHT31;51487;52.266;10.542;2023-02-15T08:29:30;2.03;93.18
64961;SHT31;51487;52.266;10.542;2023-02-15T08:32:06;2.22;92.96
64961;SHT31;51487;52.266;10.542;2023-02-15T08:34:37;2.22;92.62
64961;SHT31;51487;52.266;10.542;2023-02-15T08:37:03;2.21;92.87
64961;SHT31;51487;52.266;10.542;2023-02-15T08:39:29;2.42;92.58
64961;SHT31;51487;52.266;10.542;2023-02-15T08:41:54;2.46;92.36
64961;SHT31;51487;52.266;10.542;2023-02-15T08:44:20;2.57;92.74
64961;SHT31;51487;52.266;10.542;2023-02-15T08:46:48;2.72;92.90
64961;SHT31;51487;52.266;10.542;2023-02-15T08:49:18;2.89;92.72
64961;SHT31;51487;52.266;10.542;2023-02-15T08:51:44;3.07;92.66
64961;SHT31;51487;52.266;10.542;2023-02-15T08:54:14;3.15;92.37
64961;SHT31;51487;52.266;10.542;2023-02-15T08:56:42;3.28;92.42
64961;SHT31;51487;52.266;10.542;2023-02-15T08:59:15;3.45;92.43
64961;SHT31;51487;52.266;10.542;2023-02-15T09:01:41;3.44;92.35
64961;SHT31;51487;52.266;10.542;2023-02-15T09:04:08;3.52;92.31
64961;SHT31;51487;52.266;10.542;2023-02-15T09:06:34;3.59;92.01
64961;SHT31;51487;52.266;10.542;2023-02-15T09:09:00;3.66;91.88
64961;SHT31;51487;52.266;10.542;2023-02-15T09:11:33;3.69;91.70
64961;SHT31;51487;52.266;10.542;2023-02-15T09:14:06;3.76;91.46
64961;SHT31;51487;52.266;10.542;2023-02-15T09:16:36;3.81;91.16
64961;SHT31;51487;52.266;10.542;2023-02-15T09:19:03;3.87;91.02
64961;SHT31;51487;52.266;10.542;2023-02-15T09:21:32;3.93;90.79
64961;SHT31;51487;52.266;10.542;2023-02-15T09:24:01;3.97;90.79
64961;SHT31;51487;52.266;10.542;2023-02-15T09:26:30;4.07;90.84
64961;SHT31;51487;52.266;10.542;2023-02-15T09:28:59;4.13;90.08
64961;SHT31;51487;52.266;10.542;2023-02-15T09:31:48;4.21;89.76
64961;SHT31;51487;52.266;10.542;2023-02-15T09:34:29;4.31;88.75
64961;SHT31;51487;52.266;10.542;2023-02-15T09:36:55;4.33;88.88
64961;SHT31;51487;52.266;10.542;2023-02-15T09:39:24;4.31;89.07
64961;SHT31;51487;52.266;10.542;2023-02-15T09:48:13;4.50;88.19
64961;SHT31;51487;52.266;10.542;2023-02-15T09:50:58;4.54;89.19
64961;SHT31;51487;52.266;10.542;2023-02-15T09:56:45;4.72;88.81
64961;SHT31;51487;52.266;10.542;2023-02-15T10:02:56;4.99;87.74
64961;SHT31;51487;52.266;10.542;2023-02-15T10:11:23;5.22;87.71
64961;SHT31;51487;52.266;10.542;2023-02-15T10:17:29;5.40;86.31
64961;SHT31;51487;52.266;10.542;2023-02-15T10:26:22;5.67;85.17
64961;SHT31;51487;52.266;10.542;2023-02-15T10:28:58;5.81;84.36
64961;SHT31;51487;52.266;10.542;2023-02-15T10:31:51;5.97;84.18
64961;SHT31;51487;52.266;10.542;2023-02-15T10:40:36;6.25;83.58
64961;SHT31;51487;52.266;10.542;2023-02-15T10:43:07;6.33;83.28
64961;SHT31;51487;52.266;10.542;2023-02-15T10:52:14;6.73;82.10
64961;SHT31;51487;52.266;10.542;2023-02-15T11:00:13;6.91;81.06
64961;SHT31;51487;52.266;10.542;2023-02-15T11:06:08;7.11;81.14
64961;SHT31;51487;52.266;10.542;2023-02-15T11:08:32;7.20;81.31
64961;SHT31;51487;52.266;10.542;2023-02-15T11:11:05;7.29;81.28
64961;SHT31;51487;52.266;10.542;2023-02-15T11:13:39;7.45;80.31
64961;SHT31;51487;52.266;10.542;2023-02-15T11:16:18;7.66;78.36
64961;SHT31;51487;52.266;10.542;2023-02-15T11:18:53;7.77;77.75
64961;SHT31;51487;52.266;10.542;2023-02-15T11:21:28;7.90;77.32
64961;SHT31;51487;52.266;10.542;2023-02-15T11:23:55;7.99;77.60
64961;SHT31;51487;52.266;10.542;2023-02-15T11:26:37;8.17;76.12
64961;SHT31;51487;52.266;10.542;2023-02-15T11:29:41;8.25;75.46
64961;SHT31;51487;52.266;10.542;2023-02-15T11:32:35;8.36;74.64
64961;SHT31;51487;52.266;10.542;2023-02-15T11:35:26;8.39;74.72
64961;SHT31;51487;52.266;10.542;2023-02-15T11:38:16;8.46;73.42
64961;SHT31;51487;52.266;10.542;2023-02-15T11:40:57;8.50;72.63
64961;SHT31;51487;52.266;10.542;2023-02-15T11:43:41;8.38;72.27
64961;SHT31;51487;52.266;10.542;2023-02-15T11:46:12;8.46;72.52
64961;SHT31;51487;52.266;10.542;2023-02-15T11:48:38;8.60;72.38
64961;SHT31;51487;52.266;10.542;2023-02-15T11:51:04;8.53;71.85
64961;SHT31;51487;52.266;10.542;2023-02-15T11:53:37;8.59;71.99
64961;SHT31;51487;52.266;10.542;2023-02-15T11:56:03;8.62;70.10
64961;SHT31;51487;52.266;10.542;2023-02-15T11:59:02;8.65;70.21
64961;SHT31;51487;52.266;10.542;2023-02-15T12:01:35;8.65;70.34
64961;SHT31;51487;52.266;10.542;2023-02-15T12:04:28;8.66;69.68
64961;SHT31;51487;52.266;10.542;2023-02-15T12:07:22;8.66;69.93
64961;SHT31;51487;52.266;10.542;2023-02-15T12:10:23;8.53;70.37
64961;SHT31;51487;52.266;10.542;2023-02-15T12:13:10;8.52;70.90
64961;SHT31;51487;52.266;10.542;2023-02-15T12:15:37;8.55;71.18
64961;SHT31;51487;52.266;10.542;2023-02-15T12:18:03;8.56;70.94
64961;SHT31;51487;52.266;10.542;2023-02-15T12:20:32;8.49;71.02
64961;SHT31;51487;52.266;10.542;2023-02-15T12:23:19;8.57;70.69
64961;SHT31;51487;52.266;10.542;2023-02-15T12:25:51;8.53;70.86
64961;SHT31;51487;52.266;10.542;2023-02-15T12:28:42;8.55;69.71
64961;SHT31;51487;52.266;10.542;2023-02-15T12:31:40;8.50;70.62
64961;SHT31;51487;52.266;10.542;2023-02-15T12:36:51;8.59;70.54
64961;SHT31;51487;52.266;10.542;2023-02-15T12:39:26;8.66;70.81
64961;SHT31;51487;52.266;10.542;2023-02-15T12:44:33;8.66;71.21
64961;SHT31;51487;52.266;10.542;2023-02-15T12:49:37;8.67;71.80
64961;SHT31;51487;52.266;10.542;2023-02-15T12:54:43;8.63;71.71
64961;SHT31;51487;52.266;10.542;2023-02-15T12:57:33;8.57;72.51
64961;SHT31;51487;52.266;10.542;2023-02-15T13:02:54;8.52;73.13
64961;SHT31;51487;52.266;10.542;2023-02-15T13:05:38;8.50;73.15
64961;SHT31;51487;52.266;10.542;2023-02-15T13:08:17;8.52;72.60
64961;SHT31;51487;52.266;10.542;2023-02-15T13:11:03;8.52;72.81
64961;SHT31;51487;52.266;10.542;2023-02-15T13:16:28;8.45;73.63
64961;SHT31;51487;52.266;10.542;2023-02-15T13:18:55;8.52;73.46
64961;SHT31;51487;52.266;10.542;2023-02-15T13:21:29;8.60;73.68
64961;SHT31;51487;52.266;10.542;2023-02-15T13:24:06;8.56;73.67
64961;SHT31;51487;52.266;10.542;2023-02-15T13:26:36;8.56;73.95
64961;SHT31;51487;52.266;10.542;2023-02-15T13:29:33;8.62;73.56
64961;SHT31;51487;52.266;10.542;2023-02-15T13:32:14;8.76;73.02
64961;SHT31;51487;52.266;10.542;2023-02-15T13:34:43;8.67;73.41
64961;SHT31;51487;52.266;10.542;2023-02-15T13:40:29;8.70;73.56
64961;SHT31;51487;52.266;10.542;2023-02-15T13:43:06;8.70;73.26
64961;SHT31;51487;52.266;10.542;2023-02-15T13:52:14;8.93;72.28
64961;SHT31;51487;52.266;10.542;2023-02-15T13:55:30;8.86;73.02
64961;SHT31;51487;52.266;10.542;2023-02-15T14:01:46;8.76;72.88
64961;SHT31;51487;52.266;10.542;2023-02-15T14:16:20;8.91;72.16
64961;SHT31;51487;52.266;10.542;2023-02-15T14:19:05;9.14;72.44
64961;SHT31;51487;52.266;10.542;2023-02-15T14:21:57;9.99;86.85
64961;SHT31;51487;52.266;10.542;2023-02-15T14:24:56;11.53;83.81
64961;SHT31;51487;52.266;10.542;2023-02-15T14:30:18;12.98;68.77
64961;SHT31;51487;52.266;10.542;2023-02-15T14:32:51;13.73;65.14
64961;SHT31;51487;52.266;10.542;2023-02-15T14:35:24;13.34;62.65
64961;SHT31;51487;52.266;10.542;2023-02-15T14:49:03;15.18;58.72
64961;SHT31;51487;52.266;10.542;2023-02-15T14:56:41;11.20;62.49
64961;SHT31;51487;52.266;10.542;2023-02-15T14:59:23;10.68;64.03
64961;SHT31;51487;52.266;10.542;2023-02-15T15:02:12;10.21;65.68
64961;SHT31;51487;52.266;10.542;2023-02-15T15:04:58;9.97;66.56
64961;SHT31;51487;52.266;10.542;2023-02-15T15:07:28;9.63;67.66
64961;SHT31;51487;52.266;10.542;2023-02-15T15:10:35;9.55;67.50
64961;SHT31;51487;52.266;10.542;2023-02-15T15:15:55;9.32;69.00
64961;SHT31;51487;52.266;10.542;2023-02-15T15:18:52;9.10;69.71
64961;SHT31;51487;52.266;10.542;2023-02-15T15:27:48;8.97;71.14
64961;SHT31;51487;52.266;10.542;2023-02-15T15:41:47;8.67;72.25
64961;SHT31;51487;52.266;10.542;2023-02-15T15:50:53;8.62;72.63
64961;SHT31;51487;52.266;10.542;2023-02-15T15:53:26;8.63;72.58
64961;SHT31;51487;52.266;10.542;2023-02-15T15:56:02;8.66;72.44
64961;SHT31;51487;52.266;10.542;2023-02-15T15:58:30;8.62;72.77
64961;SHT31;51487;52.266;10.542;2023-02-15T16:01:11;8.63;72.87
64961;SHT31;51487;52.266;10.542;2023-02-15T16:03:50;8.56;72.99
64961;SHT31;51487;52.266;10.542;2023-02-15T16:06:35;8.44;73.57
64961;SHT31;51487;52.266;10.542;2023-02-15T16:09:20;8.35;73.83
64961;SHT31;51487;52.266;10.542;2023-02-15T16:11:50;8.36;74.20
64961;SHT31;51487;52.266;10.542;2023-02-15T16:14:30;8.25;74.83
64961;SHT31;51487;52.266;10.542;2023-02-15T16:17:00;8.11;75.12
64961;SHT31;51487;52.266;10.542;2023-02-15T16:19:35;8.09;75.36
64961;SHT31;51487;52.266;10.542;2023-02-15T16:22:02;8.01;75.64
64961;SHT31;51487;52.266;10.542;2023-02-15T16:27:28;7.86;76.39
64961;SHT31;51487;52.266;10.542;2023-02-15T16:29:55;7.80;76.52
64961;SHT31;51487;52.266;10.542;2023-02-15T16:32:26;7.74;76.66
64961;SHT31;51487;52.266;10.542;2023-02-15T16:34:59;7.67;76.96
64961;SHT31;51487;52.266;10.542;2023-02-15T16:37:33;7.71;77.04
64961;SHT31;51487;52.266;10.542;2023-02-15T16:40:00;7.63;77.44
64961;SHT31;51487;52.266;10.542;2023-02-15T16:42:26;7.59;77.55
64961;SHT31;51487;52.266;10.542;2023-02-15T16:45:18;7.43;77.93
64961;SHT31;51487;52.266;10.542;2023-02-15T16:47:49;7.38;78.11
64961;SHT31;51487;52.266;10.542;2023-02-15T16:50:49;7.26;78.61
64961;SHT31;51487;52.266;10.542;2023-02-15T16:53:22;7.15;79.19
64961;SHT31;51487;52.266;10.542;2023-02-15T16:56:04;7.11;79.44
64961;SHT31;51487;52.266;10.542;2023-02-15T16:58:56;7.01;79.70
64961;SHT31;51487;52.266;10.542;2023-02-15T17:01:28;6.95;80.06
64961;SHT31;51487;52.266;10.542;2023-02-15T17:04:27;6.89;80.33
64961;SHT31;51487;52.266;10.542;2023-02-15T17:07:19;6.88;80.60
64961;SHT31;51487;52.266;10.542;2023-02-15T17:09:53;6.94;80.19
64961;SHT31;51487;52.266;10.542;2023-02-15T17:12:52;6.87;80.47
64961;SHT31;51487;52.266;10.542;2023-02-15T17:15:36;6.77;80.81
64961;SHT31;51487;52.266;10.542;2023-02-15T17:18:21;6.67;81.11
64961;SHT31;51487;52.266;10.542;2023-02-15T17:20:51;6.56;81.64
64961;SHT31;51487;52.266;10.542;2023-02-15T17:25:57;6.46;82.19
64961;SHT31;51487;52.266;10.542;2023-02-15T17:28:31;6.39;82.01
64961;SHT31;51487;52.266;10.542;2023-02-15T17:30:58;6.32;82.22
64961;SHT31;51487;52.266;10.542;2023-02-15T17:33:36;6.22;82.60
64961;SHT31;51487;52.266;10.542;2023-02-15T17:36:06;6.18;83.02
64961;SHT31;51487;52.266;10.542;2023-02-15T17:38:32;6.13;83.14
64961;SHT31;51487;52.266;10.542;2023-02-15T17:40:58;6.13;83.01
64961;SHT31;51487;52.266;10.542;2023-02-15T17:43:25;6.03;83.41
64961;SHT31;51487;52.266;10.542;2023-02-15T17:45:51;5.94;83.59
64961;SHT31;51487;52.266;10.542;2023-02-15T17:48:39;5.97;83.69
64961;SHT31;51487;52.266;10.542;2023-02-15T17:51:11;5.92;83.52
64961;SHT31;51487;52.266;10.542;2023-02-15T17:53:38;5.81;83.73
64961;SHT31;51487;52.266;10.542;2023-02-15T17:56:04;5.78;84.14
64961;SHT31;51487;52.266;10.542;2023-02-15T17:58:35;5.75;83.99
64961;SHT31;51487;52.266;10.542;2023-02-15T18:01:17;5.71;84.07
64961;SHT31;51487;52.266;10.542;2023-02-15T18:04:02;5.70;84.37
64961;SHT31;51487;52.266;10.542;2023-02-15T18:06:47;5.61;84.25
64961;SHT31;51487;52.266;10.542;2023-02-15T18:09:31;5.61;84.30
64961;SHT31;51487;52.266;10.542;2023-02-15T18:12:27;5.54;84.59
64961;SHT31;51487;52.266;10.542;2023-02-15T18:14:55;5.48;84.75
64961;SHT31;51487;52.266;10.542;2023-02-15T18:17:35;5.41;85.07
64961;SHT31;51487;52.266;10.542;2023-02-15T18:20:06;5.37;85.28
64961;SHT31;51487;52.266;10.542;2023-02-15T18:22:32;5.33;85.45
64961;SHT31;51487;52.266;10.542;2023-02-15T18:24:58;5.30;85.64
64961;SHT31;51487;52.266;10.542;2023-02-15T18:27:24;5.30;85.83
64961;SHT31;51487;52.266;10.542;2023-02-15T18:29:50;5.31;85.87
64961;SHT31;51487;52.266;10.542;2023-02-15T18:32:22;5.34;85.83
64961;SHT31;51487;52.266;10.542;2023-02-15T18:34:56;5.37;85.75
64961;SHT31;51487;52.266;10.542;2023-02-15T18:37:30;5.31;85.77
64961;SHT31;51487;52.266;10.542;2023-02-15T18:39:58;5.29;86.00
64961;SHT31;51487;52.266;10.542;2023-02-15T18:42:26;5.31;86.10
64961;SHT31;51487;52.266;10.542;2023-02-15T18:45:00;5.27;86.09
64961;SHT31;51487;52.266;10.542;2023-02-15T18:47:27;5.36;85.86
64961;SHT31;51487;52.266;10.542;2023-02-15T18:49:53;5.33;85.88
64961;SHT31;51487;52.266;10.542;2023-02-15T18:52:22;5.37;85.78
64961;SHT31;51487;52.266;10.542;2023-02-15T18:54:56;5.37;85.74
64961;SHT31;51487;52.266;10.542;2023-02-15T18:57:22;5.27;85.87
64961;SHT31;51487;52.266;10.542;2023-02-15T18:59:47;5.16;86.14
64961;SHT31;51487;52.266;10.542;2023-02-15T19:02:16;5.12;86.41
64961;SHT31;51487;52.266;10.542;2023-02-15T19:04:44;5.16;86.18